Langkawi International Airport


Codes: WMKL/LGK
Name: Langkawi International Airport
City: Langkawi
Country: Malaysia
Elevation: 29 ft.
Wikipedia:

Photos at Langkawi International Airport


   Photos courtesy of SpottingLog. You can add your own sightings and photos by signing up for a free trial today.



No photos found.

Weather at Langkawi International Airport


Time (UTC)DescriptionTempratureWindCloud coverageVisibilityPressureHumidity
26-Jun-2024 00:00Light Rain29°C2 mph, SW100%10000m1007hPa74%
26-Jun-2024 03:00Light Rain29°C4 mph, S100%10000m1008hPa71%
26-Jun-2024 06:00Overcast Clouds30°C4 mph, S92%10000m1007hPa67%
26-Jun-2024 09:00Broken Clouds30°C2 mph, SE76%10000m1006hPa66%
26-Jun-2024 12:00Broken Clouds30°C2 mph, S79%10000m1007hPa67%
26-Jun-2024 15:00Overcast Clouds30°C2 mph, SE100%10000m1010hPa67%
26-Jun-2024 18:00Overcast Clouds29°C4 mph, NE100%10000m1009hPa71%
26-Jun-2024 21:00Overcast Clouds29°C4 mph, E96%10000m1008hPa74%
27-Jun-2024 00:00Light Rain29°C4 mph, NE89%10000m1009hPa75%
27-Jun-2024 03:00Light Rain29°C4 mph, NE60%10000m1010hPa74%
27-Jun-2024 06:00Scattered Clouds29°C0 mph, SE37%10000m1008hPa71%
27-Jun-2024 09:00Few Clouds30°C7 mph, SW17%10000m1006hPa70%
27-Jun-2024 12:00Light Rain30°C2 mph, W60%10000m1008hPa69%
27-Jun-2024 15:00Overcast Clouds30°C2 mph, NW98%10000m1010hPa69%
27-Jun-2024 18:00Moderate Rain28°C2 mph, N99%7049m1010hPa78%
27-Jun-2024 21:00Moderate Rain29°C2 mph, W92%10000m1009hPa68%
28-Jun-2024 00:00Broken Clouds29°C2 mph, NW76%10000m1010hPa66%
28-Jun-2024 03:00Scattered Clouds29°C4 mph, W48%10000m1011hPa66%
28-Jun-2024 06:00Broken Clouds29°C4 mph, W70%10000m1009hPa66%
28-Jun-2024 09:00Scattered Clouds30°C7 mph, W29%10000m1007hPa66%
28-Jun-2024 12:00Scattered Clouds30°C4 mph, W48%10000m1009hPa68%
28-Jun-2024 15:00Overcast Clouds30°C4 mph, W99%10000m1010hPa69%
28-Jun-2024 18:00Overcast Clouds29°C2 mph, W98%10000m1009hPa69%
28-Jun-2024 21:00Overcast Clouds29°C4 mph, W100%10000m1008hPa70%
29-Jun-2024 00:00Moderate Rain29°C7 mph, S100%10000m1010hPa71%
29-Jun-2024 03:00Overcast Clouds30°C7 mph, S100%10000m1011hPa68%
29-Jun-2024 06:00Overcast Clouds29°C7 mph, SW97%10000m1009hPa69%
29-Jun-2024 09:00Broken Clouds29°C7 mph, SW70%10000m1008hPa71%
29-Jun-2024 12:00Broken Clouds29°C4 mph, SW61%10000m1009hPa72%
29-Jun-2024 15:00Scattered Clouds29°C4 mph, W31%10000m1010hPa72%
29-Jun-2024 18:00Light Rain28°C7 mph, NW52%10000m1009hPa76%
29-Jun-2024 21:00Moderate Rain28°C4 mph, W100%9427m1009hPa76%
30-Jun-2024 00:00Moderate Rain28°C4 mph, W100%10000m1010hPa69%
30-Jun-2024 03:00Light Rain28°C7 mph, SW99%10000m1011hPa70%
30-Jun-2024 06:00Moderate Rain28°C9 mph, S99%5078m1010hPa78%
30-Jun-2024 09:00Moderate Rain27°C11 mph, SW100%2675m1009hPa79%
30-Jun-2024 12:00Moderate Rain27°C7 mph, SW100%5302m1010hPa78%
30-Jun-2024 15:00Heavy Intensity Rain25°C11 mph, SW100%2222m1011hPa94%
30-Jun-2024 18:00Heavy Intensity Rain25°C16 mph, W100%5175m1011hPa90%
30-Jun-2024 21:00Moderate Rain25°C7 mph, W100%10000m1010hPa86%